Terminal Aerodrome Forecast
Issued by NWS

Home | Current Version | Previous Version | Text Only | Print | Product List | Glossary On
Versions: 1 2 3 4 5 6 7 8 9 10 11 12 13
000
FTUS46 KSEW 261700
TAFPAE
TAF
KPAE 261720Z 2618/2718 17006KT P6SM SCT100 OVC200
     FM262100 16012KT P6SM SCT050 OVC080
     FM270200 17010KT P6SM -RA SCT025 OVC040
     FM270800 17010KT P6SM SCT035 OVC050=

USA.gov is the U.S. government's official web portal to all federal, state and local government web resources and services.